Terminal Aerodrome Forecast
Issued by NWS Charleston, WV

Current Version | Previous Version | Graphics & Text | Print | Product List | Glossary On
Versions: 1 2 3 4 5 6 7 8 9 10 11 12 13 14 15 16 17 18 19 20 21 22 23 24 25
000
FTUS41 KRLX 171900 AAA
TAFBKW
TAF AMD
KBKW 171922Z 1719/1818 28008G16KT P6SM BKN025
      TEMPO 1719/1721 SCT025
     FM172100 29010G15KT P6SM SCT025
     FM180200 29009KT P6SM BKN025
     FM181500 31006KT P6SM SCT020 BKN100=

USA.gov is the U.S. government's official web portal to all federal, state and local government web resources and services.